createdAt,value
2018-10-05T00:00:11.647Z,9.53
2018-10-05T00:02:39.939Z,9.55
2018-10-05T00:05:08.231Z,9.55
2018-10-05T00:07:36.532Z,9.45
2018-10-05T00:10:04.827Z,9.33
2018-10-05T00:12:33.139Z,9.32
2018-10-05T00:15:01.418Z,9.30
2018-10-05T00:17:29.715Z,9.34
2018-10-05T00:19:58.022Z,9.37
2018-10-05T00:22:26.311Z,9.31
2018-10-05T00:24:54.608Z,9.29
2018-10-05T00:27:22.891Z,9.33
2018-10-05T00:29:51.199Z,9.30
2018-10-05T00:32:19.569Z,9.31
2018-10-05T00:34:47.799Z,9.31
2018-10-05T00:37:16.093Z,9.27
2018-10-05T00:39:44.413Z,9.18
2018-10-05T00:42:12.690Z,9.17
2018-10-05T00:44:40.986Z,9.20
2018-10-05T00:47:09.295Z,9.18
2018-10-05T00:49:37.579Z,9.16
2018-10-05T00:52:05.866Z,9.09
2018-10-05T00:54:34.164Z,9.19
2018-10-05T00:57:02.442Z,9.17
2018-10-05T00:59:30.771Z,9.16
2018-10-05T01:01:59.055Z,9.15
2018-10-05T01:04:27.343Z,9.17
2018-10-05T01:06:55.639Z,9.17
2018-10-05T01:09:23.927Z,9.23
2018-10-05T01:11:52.243Z,9.32
2018-10-05T01:14:20.534Z,9.16
2018-10-05T01:16:48.816Z,9.20
2018-10-05T01:19:17.113Z,9.19
2018-10-05T01:21:45.395Z,9.09
2018-10-05T01:24:13.695Z,9.03
2018-10-05T01:26:42.015Z,8.96
2018-10-05T01:29:10.295Z,8.89
2018-10-05T01:31:38.583Z,8.74
2018-10-05T01:34:06.879Z,8.66
2018-10-05T01:36:35.167Z,8.62
2018-10-05T01:39:03.463Z,8.54
2018-10-05T01:41:31.750Z,8.66
2018-10-05T01:44:00.044Z,8.62
2018-10-05T01:46:28.338Z,8.70
2018-10-05T01:48:56.639Z,8.65
2018-10-05T01:51:24.923Z,8.64
2018-10-05T01:53:53.208Z,8.54
2018-10-05T01:56:21.503Z,8.54
2018-10-05T01:58:49.791Z,8.48
2018-10-05T02:01:18.095Z,8.44
2018-10-05T02:03:46.376Z,8.37
2018-10-05T02:06:14.671Z,8.35
2018-10-05T02:08:42.955Z,8.29
2018-10-05T02:11:11.250Z,8.32
2018-10-05T02:13:39.539Z,8.29
2018-10-05T02:16:07.830Z,8.24
2018-10-05T02:18:36.123Z,8.31
2018-10-05T02:21:04.412Z,8.23
2018-10-05T02:23:32.707Z,8.16
2018-10-05T02:26:00.986Z,8.18
2018-10-05T02:28:29.291Z,8.19
2018-10-05T02:30:57.574Z,8.29
2018-10-05T02:33:25.864Z,8.25
2018-10-05T02:35:54.163Z,8.19
2018-10-05T02:38:22.444Z,8.24
2018-10-05T02:40:50.755Z,8.17
2018-10-05T02:43:19.043Z,8.29
2018-10-05T02:45:47.342Z,8.19
2018-10-05T02:48:15.631Z,8.24
2018-10-05T02:50:43.927Z,8.16
2018-10-05T02:53:12.219Z,8.03
2018-10-05T02:55:40.510Z,7.98
2018-10-05T02:58:08.802Z,7.87
2018-10-05T03:03:40.491Z,7.78
2018-10-05T03:06:08.815Z,7.79
2018-10-05T03:08:37.117Z,7.83
2018-10-05T03:11:05.437Z,7.87
2018-10-05T03:13:33.756Z,7.84
2018-10-05T03:16:02.081Z,7.88
2018-10-05T03:18:30.409Z,7.96
2018-10-05T03:20:58.725Z,7.89
2018-10-05T03:23:27.040Z,7.79
2018-10-05T03:25:55.355Z,7.80
2018-10-05T03:28:23.668Z,7.76
2018-10-05T03:36:09.412Z,7.76
2018-10-05T03:38:37.728Z,7.68
2018-10-05T03:41:06.048Z,7.67
2018-10-05T03:43:34.360Z,7.70
2018-10-05T03:46:02.681Z,7.74
2018-10-05T03:48:31.005Z,7.79
2018-10-05T03:50:59.313Z,7.72
2018-10-05T03:53:27.623Z,7.64
2018-10-05T03:55:55.952Z,7.63
2018-10-05T03:58:24.263Z,7.65
2018-10-05T04:00:52.596Z,7.64
2018-10-05T04:03:21.897Z,7.62
2018-10-05T04:05:50.212Z,7.55
2018-10-05T04:08:18.529Z,7.64
2018-10-05T04:10:46.829Z,7.70
2018-10-05T04:13:15.152Z,7.64
2018-10-05T04:15:43.484Z,7.73
2018-10-05T04:18:11.804Z,7.61
2018-10-05T04:20:40.120Z,7.55
2018-10-05T04:23:08.407Z,7.62
2018-10-05T04:25:36.719Z,7.67
2018-10-05T04:28:05.007Z,7.67
2018-10-05T04:30:33.327Z,7.70
2018-10-05T04:33:01.632Z,7.65
2018-10-05T04:35:30.174Z,7.64
2018-10-05T04:37:58.466Z,7.64
2018-10-05T04:40:26.758Z,7.65
2018-10-05T04:42:55.074Z,7.60
2018-10-05T04:45:23.367Z,7.71
2018-10-05T04:47:51.691Z,7.66
2018-10-05T04:50:19.983Z,7.66
2018-10-05T04:52:48.299Z,7.57
2018-10-05T04:55:16.823Z,7.57
2018-10-05T04:57:45.136Z,7.55
2018-10-05T05:00:13.459Z,7.57
2018-10-05T05:02:41.759Z,7.55
2018-10-05T05:05:10.067Z,7.53
2018-10-05T05:07:38.359Z,7.58
2018-10-05T05:10:06.679Z,7.57
2018-10-05T05:12:34.976Z,7.63
2018-10-05T05:15:03.275Z,7.66
2018-10-05T05:17:31.579Z,7.65
2018-10-05T05:19:59.871Z,7.58
2018-10-05T05:22:28.186Z,7.59
2018-10-05T05:24:56.484Z,7.58
2018-10-05T05:27:24.809Z,7.62
2018-10-05T05:29:53.122Z,7.68
2018-10-05T05:32:21.411Z,7.57
2018-10-05T05:34:49.731Z,7.61
2018-10-05T05:37:18.026Z,7.64
2018-10-05T05:39:46.331Z,7.74
2018-10-05T05:42:14.631Z,7.57
2018-10-05T05:44:42.944Z,7.65
2018-10-05T05:47:11.238Z,7.72
2018-10-05T05:49:39.552Z,7.76
2018-10-05T05:52:07.859Z,7.75
2018-10-05T05:54:36.214Z,7.77
2018-10-05T05:57:04.467Z,7.86
2018-10-05T05:59:32.775Z,7.92
2018-10-05T06:02:01.086Z,8.03
2018-10-05T06:04:29.399Z,7.98
2018-10-05T06:06:57.694Z,8.03
2018-10-05T06:09:26.004Z,8.03
2018-10-05T06:11:54.336Z,7.97
2018-10-05T06:14:22.614Z,7.96
2018-10-05T06:16:50.920Z,8.01
2018-10-05T06:19:19.234Z,8.06
2018-10-05T06:21:47.690Z,8.09
2018-10-05T06:24:15.840Z,8.21
2018-10-05T06:26:44.150Z,8.28
2018-10-05T06:29:12.451Z,8.30
2018-10-05T06:31:40.754Z,8.36
2018-10-05T06:34:09.055Z,8.50
2018-10-05T06:36:37.373Z,8.55
2018-10-05T06:39:05.697Z,8.55
2018-10-05T06:41:33.956Z,8.58
2018-10-05T06:44:02.261Z,8.65
2018-10-05T06:46:30.554Z,8.80
2018-10-05T06:48:58.852Z,8.81
2018-10-05T06:51:27.151Z,8.90
2018-10-05T06:53:55.463Z,8.98
2018-10-05T06:56:23.769Z,8.81
2018-10-05T06:58:52.188Z,8.96
2018-10-05T07:01:20.502Z,9.03
2018-10-05T07:03:48.790Z,9.06
2018-10-05T07:06:17.087Z,9.08
2018-10-05T07:08:45.495Z,9.25
2018-10-05T07:11:13.761Z,9.37
2018-10-05T07:13:42.066Z,9.40
2018-10-05T07:16:10.366Z,9.58
2018-10-05T07:18:38.660Z,9.41
2018-10-05T07:21:06.987Z,9.51
2018-10-05T07:23:35.263Z,9.65
2018-10-05T07:26:03.571Z,9.73
2018-10-05T07:28:32.063Z,9.78
2018-10-05T07:31:00.172Z,9.70
2018-10-05T07:33:28.480Z,9.73
2018-10-05T07:35:56.776Z,9.86
2018-10-05T07:38:25.087Z,9.95
2018-10-05T07:40:53.383Z,9.99
2018-10-05T07:43:21.703Z,10.19
2018-10-05T07:45:50.007Z,10.32
2018-10-05T07:48:18.306Z,10.44
2018-10-05T07:50:46.619Z,10.52
2018-10-05T07:53:14.923Z,10.57
2018-10-05T07:55:43.231Z,10.48
2018-10-05T07:58:11.531Z,10.61
2018-10-05T08:00:39.847Z,10.68
2018-10-05T08:03:08.151Z,10.78
2018-10-05T08:05:36.487Z,11.05
2018-10-05T08:08:04.787Z,11.16
2018-10-05T08:10:33.088Z,11.28
2018-10-05T08:13:01.398Z,11.38
2018-10-05T08:15:29.695Z,11.40
2018-10-05T08:17:58.075Z,11.35
2018-10-05T08:20:26.359Z,11.49
2018-10-05T08:22:54.698Z,11.66
2018-10-05T08:25:23.043Z,11.85
2018-10-05T08:27:51.352Z,11.99
2018-10-05T08:30:19.660Z,12.15
2018-10-05T08:32:47.935Z,12.24
2018-10-05T08:35:16.231Z,12.36
2018-10-05T08:37:44.539Z,12.44
2018-10-05T08:45:02.371Z,12.75
2018-10-05T08:47:30.697Z,12.88
2018-10-05T08:49:59.115Z,12.91
2018-10-05T08:52:27.802Z,12.79
2018-10-05T08:54:56.285Z,12.98
2018-10-05T08:57:24.624Z,13.11
2018-10-05T08:59:53.005Z,13.41
2018-10-05T09:02:21.464Z,13.47
2018-10-05T09:04:50.891Z,13.68
2018-10-05T09:07:19.285Z,13.83
2018-10-05T09:09:47.640Z,13.93
2018-10-05T09:12:17.162Z,13.87
2018-10-05T09:14:47.917Z,13.94
2018-10-05T09:17:16.395Z,14.29
2018-10-05T09:19:44.816Z,14.23
2018-10-05T09:22:14.203Z,14.20
2018-10-05T09:24:42.683Z,14.44
2018-10-05T09:27:11.278Z,14.64
2018-10-05T09:29:40.897Z,14.78
2018-10-05T09:32:09.389Z,14.95
2018-10-05T09:34:38.776Z,14.88
2018-10-05T09:37:08.046Z,15.20
2018-10-05T09:39:37.477Z,15.18
2018-10-05T09:42:06.818Z,15.28
2018-10-05T09:44:35.214Z,15.37
2018-10-05T09:47:03.660Z,15.40
2018-10-05T09:49:32.146Z,15.59
2018-10-05T09:52:02.530Z,15.82
2018-10-05T09:54:30.956Z,15.99
2018-10-05T09:56:59.407Z,15.71
2018-10-05T09:59:27.884Z,16.05
2018-10-05T10:01:56.293Z,16.06
2018-10-05T10:04:24.796Z,15.98
2018-10-05T10:06:55.183Z,16.39
2018-10-05T10:09:24.544Z,16.48
2018-10-05T10:11:55.056Z,16.65
2018-10-05T10:14:23.562Z,16.72
2018-10-05T10:16:55.708Z,16.88
2018-10-05T10:19:24.156Z,16.81
2018-10-05T10:24:45.079Z,17.06
2018-10-05T10:27:13.388Z,16.93
2018-10-05T10:29:41.671Z,17.21
2018-10-05T10:32:09.959Z,17.26
2018-10-05T10:34:38.346Z,17.43
2018-10-05T10:37:06.583Z,17.42
2018-10-05T10:39:34.888Z,17.41
2018-10-05T10:42:03.181Z,17.59
2018-10-05T10:44:31.476Z,17.60
2018-10-05T10:46:59.775Z,17.72
2018-10-05T10:49:28.070Z,17.79
2018-10-05T10:51:56.376Z,17.99
2018-10-05T10:54:24.670Z,18.00
2018-10-05T10:56:52.964Z,18.29
2018-10-05T10:59:21.270Z,18.18
2018-10-05T11:01:49.555Z,18.15
2018-10-05T11:04:17.886Z,18.12
2018-10-05T11:06:46.171Z,18.20
2018-10-05T11:09:14.472Z,18.15
2018-10-05T11:11:42.783Z,18.36
2018-10-05T11:14:11.067Z,18.22
2018-10-05T11:16:39.372Z,18.30
2018-10-05T11:19:07.662Z,18.30
2018-10-05T11:21:35.959Z,18.13
2018-10-05T11:24:04.259Z,18.09
2018-10-05T11:26:32.547Z,18.18
2018-10-05T11:29:00.835Z,18.43
2018-10-05T11:31:29.139Z,18.39
2018-10-05T11:33:57.431Z,18.42
2018-10-05T11:36:25.743Z,18.53
2018-10-05T11:38:54.035Z,18.47
2018-10-05T11:41:22.347Z,18.58
2018-10-05T11:43:50.672Z,18.48
2018-10-05T11:46:19.004Z,18.37
2018-10-05T11:48:47.263Z,18.34
2018-10-05T11:51:15.571Z,18.72
2018-10-05T11:53:43.887Z,18.58
2018-10-05T11:56:12.183Z,18.49
2018-10-05T11:58:40.507Z,18.46
2018-10-05T12:01:08.811Z,18.57
2018-10-05T12:03:37.122Z,18.54
2018-10-05T12:06:05.419Z,18.52
2018-10-05T12:08:33.720Z,18.69
2018-10-05T12:11:02.028Z,18.77
2018-10-05T12:13:30.324Z,18.69
2018-10-05T12:15:58.628Z,18.80
2018-10-05T12:18:26.919Z,19.17
2018-10-05T12:20:55.224Z,19.20
2018-10-05T12:23:23.515Z,18.98
2018-10-05T12:25:51.825Z,19.11
2018-10-05T12:28:20.119Z,19.08
2018-10-05T12:30:48.407Z,19.03
2018-10-05T12:33:16.791Z,19.12
2018-10-05T12:35:45.001Z,19.28
2018-10-05T12:38:13.532Z,19.51
2018-10-05T12:40:41.916Z,19.44
2018-10-05T12:43:10.211Z,19.37
2018-10-05T12:45:38.502Z,19.38
2018-10-05T12:48:06.809Z,19.52
2018-10-05T12:50:35.103Z,19.62
2018-10-05T12:53:03.446Z,19.33
2018-10-05T12:55:31.712Z,19.53
2018-10-05T12:58:00.006Z,19.60
2018-10-05T13:00:28.303Z,19.69
2018-10-05T13:02:56.591Z,19.68
2018-10-05T13:05:24.920Z,19.60
2018-10-05T13:07:53.263Z,19.71
2018-10-05T13:10:21.563Z,19.81
2018-10-05T13:12:49.900Z,19.65
2018-10-05T13:15:18.175Z,19.63
2018-10-05T13:17:46.479Z,19.49
2018-10-05T13:20:14.792Z,19.49
2018-10-05T13:22:43.087Z,19.88
2018-10-05T13:25:11.397Z,19.82
2018-10-05T13:27:39.721Z,19.80
2018-10-05T13:30:08.063Z,19.82
2018-10-05T13:32:36.355Z,20.05
2018-10-05T13:35:04.647Z,19.98
2018-10-05T13:37:32.955Z,20.03
2018-10-05T13:40:01.263Z,19.94
2018-10-05T13:42:29.575Z,19.89
2018-10-05T13:44:57.891Z,19.88
2018-10-05T13:47:26.182Z,19.86
2018-10-05T13:49:54.486Z,19.96
2018-10-05T13:52:22.832Z,19.98
2018-10-05T13:54:51.179Z,19.86
2018-10-05T13:57:19.475Z,20.01
2018-10-05T13:59:47.780Z,19.88
2018-10-05T14:02:16.119Z,20.04
2018-10-05T14:04:44.369Z,19.84
2018-10-05T14:07:12.816Z,20.00
2018-10-05T14:09:40.971Z,20.04
2018-10-05T14:12:09.266Z,19.99
2018-10-05T14:14:37.571Z,19.96
2018-10-05T14:17:05.859Z,19.96
2018-10-05T14:19:34.184Z,20.05
2018-10-05T14:22:02.470Z,20.12
2018-10-05T14:24:30.759Z,20.19
2018-10-05T14:26:59.064Z,20.03
2018-10-05T14:29:27.351Z,20.20
2018-10-05T14:31:55.663Z,20.30
2018-10-05T14:34:23.955Z,20.13
2018-10-05T14:36:52.263Z,20.07
2018-10-05T14:39:20.568Z,20.08
2018-10-05T14:41:48.941Z,20.28
2018-10-05T14:44:17.169Z,20.45
2018-10-05T14:46:45.467Z,20.34
2018-10-05T14:49:13.755Z,20.44
2018-10-05T14:51:42.080Z,20.47
2018-10-05T14:54:10.371Z,20.49
2018-10-05T14:56:38.673Z,20.35
2018-10-05T14:59:06.955Z,20.04
2018-10-05T15:01:35.260Z,19.99
2018-10-05T15:04:03.547Z,20.10
2018-10-05T15:06:31.841Z,19.93
2018-10-05T15:09:00.143Z,19.97
2018-10-05T15:11:28.426Z,19.82
2018-10-05T15:13:56.751Z,19.75
2018-10-05T15:16:25.183Z,19.87
2018-10-05T15:18:53.436Z,19.64
2018-10-05T15:21:21.772Z,19.53
2018-10-05T15:23:50.022Z,19.73
2018-10-05T15:26:18.323Z,19.53
2018-10-05T15:28:46.619Z,19.36
2018-10-05T15:31:14.926Z,19.24
2018-10-05T15:33:43.217Z,19.12
2018-10-05T15:36:11.507Z,19.08
2018-10-05T15:38:39.842Z,19.05
2018-10-05T15:41:08.099Z,19.03
2018-10-05T15:43:36.397Z,18.84
2018-10-05T15:46:04.687Z,18.79
2018-10-05T15:48:32.988Z,18.77
2018-10-05T15:51:01.280Z,18.75
2018-10-05T15:53:29.575Z,18.61
2018-10-05T15:55:57.927Z,18.46
2018-10-05T15:58:26.231Z,18.41
2018-10-05T16:00:54.519Z,18.40
2018-10-05T16:03:22.811Z,18.28
2018-10-05T16:05:51.140Z,18.21
2018-10-05T16:08:19.402Z,18.12
2018-10-05T16:10:47.699Z,18.07
2018-10-05T16:13:15.987Z,18.00
2018-10-05T16:15:44.280Z,17.96
2018-10-05T16:18:12.596Z,17.88
2018-10-05T16:20:40.863Z,17.81
2018-10-05T16:23:09.159Z,17.74
2018-10-05T16:25:37.451Z,17.70
2018-10-05T16:28:05.734Z,17.66
2018-10-05T16:30:34.035Z,17.65
2018-10-05T16:33:02.319Z,17.56
2018-10-05T16:35:30.618Z,17.65
2018-10-05T16:37:58.911Z,17.66
2018-10-05T16:40:27.194Z,17.49
2018-10-05T16:42:55.477Z,17.49
2018-10-05T16:45:23.783Z,17.45
2018-10-05T16:47:52.058Z,17.44
2018-10-05T16:50:20.347Z,17.44
2018-10-05T16:52:48.630Z,17.28
2018-10-05T16:55:16.911Z,17.19
2018-10-05T16:57:45.208Z,17.07
2018-10-05T17:00:13.479Z,16.98
2018-10-05T17:02:41.775Z,16.90
2018-10-05T17:05:10.051Z,16.90
2018-10-05T17:07:38.338Z,16.87
2018-10-05T17:10:06.614Z,16.90
2018-10-05T17:12:34.895Z,16.72
2018-10-05T17:15:03.187Z,16.70
2018-10-05T17:17:31.463Z,16.63
2018-10-05T17:19:59.752Z,16.51
2018-10-05T17:22:28.035Z,16.58
2018-10-05T17:24:56.327Z,16.41
2018-10-05T17:27:24.611Z,16.41
2018-10-05T17:29:52.909Z,16.60
2018-10-05T17:32:21.195Z,16.47
2018-10-05T17:34:49.498Z,16.34
2018-10-05T17:37:17.829Z,16.31
2018-10-05T17:39:46.119Z,16.33
2018-10-05T17:42:14.416Z,16.18
2018-10-05T17:44:42.710Z,16.06
2018-10-05T17:47:10.991Z,15.94
2018-10-05T17:49:39.335Z,15.98
2018-10-05T17:52:07.625Z,16.04
2018-10-05T17:54:35.914Z,15.99
2018-10-05T17:57:04.216Z,15.80
2018-10-05T17:59:32.524Z,15.66
2018-10-05T18:02:00.862Z,15.67
2018-10-05T18:04:29.108Z,15.62
2018-10-05T18:06:57.452Z,15.60
2018-10-05T18:09:25.747Z,15.77
2018-10-05T18:11:54.036Z,15.45
2018-10-05T18:14:22.401Z,15.49
2018-10-05T18:16:50.676Z,15.48
2018-10-05T18:19:18.967Z,15.37
2018-10-05T18:21:47.266Z,15.28
2018-10-05T18:24:15.558Z,15.31
2018-10-05T18:26:43.863Z,15.38
2018-10-05T18:29:12.174Z,15.28
2018-10-05T18:31:40.471Z,15.28
2018-10-05T18:34:08.927Z,15.25
2018-10-05T18:36:37.078Z,15.22
2018-10-05T18:39:05.387Z,15.21
2018-10-05T18:41:33.679Z,15.12
2018-10-05T18:44:02.000Z,14.93
2018-10-05T18:46:30.298Z,14.87
2018-10-05T18:48:58.596Z,14.75
2018-10-05T18:51:26.907Z,14.68
2018-10-05T18:53:55.203Z,14.61
2018-10-05T18:59:34.827Z,14.50
2018-10-05T19:02:03.063Z,14.52
2018-10-05T19:04:32.611Z,14.48
2018-10-05T19:07:00.944Z,14.43
2018-10-05T19:09:29.219Z,14.46
2018-10-05T19:11:57.519Z,14.40
2018-10-05T19:14:25.832Z,14.35
2018-10-05T19:16:54.129Z,14.33
2018-10-05T19:19:22.436Z,14.33
2018-10-05T19:21:50.727Z,14.34
2018-10-05T19:24:19.031Z,14.38
2018-10-05T19:26:47.339Z,14.39
2018-10-05T19:29:15.690Z,14.35
2018-10-05T19:31:43.988Z,14.31
2018-10-05T19:34:12.411Z,14.29
2018-10-05T19:36:40.782Z,14.26
2018-10-05T19:39:09.015Z,14.20
2018-10-05T19:41:37.326Z,14.20
2018-10-05T19:44:05.620Z,14.25
2018-10-05T19:46:33.961Z,14.22
2018-10-05T19:49:02.267Z,14.19
2018-10-05T19:51:30.568Z,14.16
2018-10-05T19:53:58.951Z,14.13
2018-10-05T19:56:27.166Z,14.06
2018-10-05T19:58:55.474Z,14.00
2018-10-05T20:01:23.774Z,13.99
2018-10-05T20:03:52.063Z,14.01
2018-10-05T20:06:20.376Z,13.95
2018-10-05T20:08:48.668Z,13.92
2018-10-05T20:11:16.975Z,13.90
2018-10-05T20:13:45.275Z,13.85
2018-10-05T20:16:13.601Z,13.81
2018-10-05T20:18:41.900Z,13.83
2018-10-05T20:21:10.199Z,13.78
2018-10-05T20:23:38.512Z,13.78
2018-10-05T20:26:06.802Z,13.75
2018-10-05T20:28:35.111Z,13.67
2018-10-05T20:31:03.407Z,13.62
2018-10-05T20:33:31.723Z,13.64
2018-10-05T20:36:00.117Z,13.60
2018-10-05T20:38:28.451Z,13.55
2018-10-05T20:40:56.615Z,13.47
2018-10-05T20:43:24.921Z,13.35
2018-10-05T20:45:53.223Z,13.53
2018-10-05T20:48:21.524Z,13.59
2018-10-05T20:50:49.832Z,13.53
2018-10-05T20:53:18.132Z,13.48
2018-10-05T20:55:46.457Z,13.42
2018-10-05T20:58:14.783Z,13.42
2018-10-05T21:00:43.087Z,13.43
2018-10-05T21:03:11.387Z,13.38
2018-10-05T21:05:39.690Z,13.34
2018-10-05T21:08:08.003Z,13.29
2018-10-05T21:10:36.300Z,13.17
2018-10-05T21:13:04.595Z,13.18
2018-10-05T21:15:32.903Z,13.18
2018-10-05T21:18:01.195Z,13.11
2018-10-05T21:20:29.509Z,13.16
2018-10-05T21:22:57.803Z,13.17
2018-10-05T21:25:26.099Z,13.17
2018-10-05T21:27:54.414Z,13.15
2018-10-05T21:30:22.719Z,13.24
2018-10-05T21:32:51.064Z,13.29
2018-10-05T21:35:19.316Z,13.28
2018-10-05T21:37:48.085Z,13.26
2018-10-05T21:40:16.392Z,13.24
2018-10-05T21:42:44.687Z,13.25
2018-10-05T21:45:12.995Z,13.23
2018-10-05T21:47:41.312Z,13.37
2018-10-05T21:50:09.578Z,13.39
2018-10-05T21:52:37.939Z,13.53
2018-10-05T21:55:06.246Z,13.46
2018-10-05T21:57:34.496Z,13.41
2018-10-05T22:00:02.792Z,13.42
2018-10-05T22:02:31.083Z,13.45
2018-10-05T22:04:59.391Z,13.46
2018-10-05T22:07:27.695Z,13.58
2018-10-05T22:09:56.003Z,13.55
2018-10-05T22:12:24.294Z,13.64
2018-10-05T22:14:52.583Z,13.67
2018-10-05T22:17:20.895Z,13.64
2018-10-05T22:19:49.254Z,13.55
2018-10-05T22:22:17.491Z,13.58
2018-10-05T22:24:45.791Z,13.58
2018-10-05T22:27:14.092Z,13.51
2018-10-05T22:29:42.395Z,13.48
2018-10-05T22:32:10.687Z,13.53
2018-10-05T22:34:38.999Z,13.40
2018-10-05T22:37:07.291Z,13.40
2018-10-05T22:39:35.583Z,13.49
2018-10-05T22:42:03.887Z,13.50
2018-10-05T22:44:32.203Z,13.59
2018-10-05T22:47:00.499Z,13.59
2018-10-05T22:49:28.791Z,13.64
2018-10-05T22:51:57.103Z,13.60
2018-10-05T22:54:25.391Z,13.50
2018-10-05T22:56:53.683Z,13.53
2018-10-05T22:59:21.987Z,13.51
2018-10-05T23:01:50.279Z,13.38
2018-10-05T23:04:18.579Z,13.29
2018-10-05T23:06:46.875Z,13.23
2018-10-05T23:09:15.170Z,13.26
2018-10-05T23:11:43.476Z,13.10
2018-10-05T23:14:11.774Z,12.88
2018-10-05T23:16:40.067Z,12.91
2018-10-05T23:19:08.372Z,12.92
2018-10-05T23:21:36.676Z,13.17
2018-10-05T23:24:04.968Z,13.10
2018-10-05T23:26:33.274Z,12.90
2018-10-05T23:29:01.575Z,12.92
2018-10-05T23:31:29.871Z,12.97
2018-10-05T23:33:58.171Z,12.94
2018-10-05T23:36:26.474Z,12.86
2018-10-05T23:38:54.788Z,12.81
2018-10-05T23:41:23.075Z,12.82
2018-10-05T23:43:51.371Z,12.83
2018-10-05T23:46:19.663Z,12.80
2018-10-05T23:48:48.096Z,12.90
2018-10-05T23:51:16.399Z,12.89
2018-10-05T23:53:44.726Z,12.96
2018-10-05T23:56:13.036Z,12.98
2018-10-05T23:58:41.344Z,13.01
